Current Conditions
Partly Cloudy
Conditions



Pressure
1015.92 (hPa) - 30 (inHG)
Visibility

10.0 (km) - 6.2 (miles)
Temperature
19  °C
Temperature
18  °C
Dewpoint
94  %
 Humidity
Wind Speed
2.7  m/s
6  mph
10  km/h
5  kts
Wind Direction
N
45°
E
90°
135°
S
180°
225°
W
270°
315°
 250°

West South
West
Airport Data
EFHK
Helsinki Vantaa Airport
Metar :EFHK 232220Z 25005KT 9999 FEW003 BKN004 19/18 Q1016 TEMPO BKN003
Thu 24th June 01:20 am
Raw Metar Info
Raw METAR is the most common format in the world for the transmission of observational weather data. It is highly standardized through the International Civil Aviation Organization (ICAO), which allows it to be understood throughout most of the world.
API Info
Data Provided by
https://www.checkwx.com/weather/EFHK

Aviation Weather providing METAR, TAF, AIRMET, SIGMET and OUTLOOK Weather Reports
© Info
CSS/SVG/PHP scripts were developed by weather34.com for use in the weather34 template © 2015-2021

Guide Info provided by Metar-Wikipedia